Remmel, Arkansas
Current Conditions -  °F | °C
As of 2:56 PM on Tuesday 21 Oct 2014 (Local Time) from KM19 Reporting Station
Clear Clear  
Wind Chill: 76°   Ceiling: Unl
Heat Index: 76°   Visibility: 10mi
Dew Point: 45°   Wind: 5mph
Humidity: 33%   Direction: 50°NE
Pressure: 30.08"   Gusts: NA
Location:  35.5678°N, 91.2073°W
Report Text: KM19 211956Z AUTO 05004KT 10SM CLR 24/07 A3008 RMK AO2 T02440072 SLP182
Loading
Personal Weather Stations






























Interactive Weather Map
Tropical Storm Tracking
New forecast layout! Learn more

10-Day Weather Forecast

Advertisements
Track Severe Weather on mobile